createdAt,value
2022-12-15T00:00:06.988Z,7
2022-12-15T00:02:07.140Z,5
2022-12-15T00:04:07.227Z,5
2022-12-15T00:08:07.350Z,5
2022-12-15T00:10:07.437Z,6
2022-12-15T00:12:07.547Z,5
2022-12-15T00:16:07.864Z,6
2022-12-15T00:18:07.797Z,7
2022-12-15T00:20:07.868Z,6
2022-12-15T00:22:07.963Z,6
2022-12-15T00:24:08.074Z,6
2022-12-15T00:26:08.152Z,6
2022-12-15T00:28:08.255Z,5
2022-12-15T00:30:08.355Z,5
2022-12-15T00:32:08.429Z,4
2022-12-15T00:34:08.515Z,4
2022-12-15T00:36:08.603Z,4
2022-12-15T00:38:08.692Z,4
2022-12-15T00:40:08.772Z,4
2022-12-15T00:42:08.871Z,4
2022-12-15T00:44:08.970Z,4
2022-12-15T00:46:09.125Z,5
2022-12-15T00:48:09.132Z,4
2022-12-15T00:52:39.396Z,5
2022-12-15T00:54:39.502Z,5
2022-12-15T00:56:39.640Z,5
2022-12-15T00:58:39.752Z,6
2022-12-15T01:00:39.830Z,5
2022-12-15T01:02:40.117Z,6
2022-12-15T01:04:40.081Z,5
2022-12-15T01:06:40.189Z,5
2022-12-15T01:08:40.299Z,5
2022-12-15T01:12:40.520Z,4
2022-12-15T01:14:40.638Z,5
2022-12-15T01:16:40.914Z,5
2022-12-15T01:18:40.892Z,5
2022-12-15T01:20:41.019Z,5
2022-12-15T01:22:41.101Z,5
2022-12-15T01:24:41.239Z,5
2022-12-15T01:26:41.341Z,5
2022-12-15T01:28:41.556Z,5
2022-12-15T01:34:41.758Z,5
2022-12-15T01:36:41.860Z,5
2022-12-15T01:38:42.004Z,5
2022-12-15T01:40:42.124Z,5
2022-12-15T01:42:42.236Z,5
2022-12-15T01:44:42.322Z,4
2022-12-15T01:46:42.503Z,4
2022-12-15T01:48:42.676Z,5
2022-12-15T01:50:42.672Z,4
2022-12-15T01:52:42.766Z,4
2022-12-15T01:54:42.867Z,4
2022-12-15T01:56:43.004Z,4
2022-12-15T01:58:43.087Z,4
2022-12-15T02:00:43.289Z,4
2022-12-15T02:02:43.510Z,4
2022-12-15T02:04:43.417Z,4
2022-12-15T02:06:43.557Z,3
2022-12-15T02:10:43.777Z,3
2022-12-15T02:12:43.882Z,3
2022-12-15T02:14:43.999Z,3
2022-12-15T02:16:44.151Z,3
2022-12-15T02:18:44.200Z,3
2022-12-15T02:20:44.291Z,3
2022-12-15T02:22:44.426Z,3
2022-12-15T02:24:44.542Z,3
2022-12-15T02:26:44.649Z,3
2022-12-15T02:28:44.759Z,3
2022-12-15T02:30:44.900Z,3
2022-12-15T02:32:44.957Z,3
2022-12-15T02:34:45.095Z,3
2022-12-15T02:36:45.173Z,3
2022-12-15T02:40:45.393Z,3
2022-12-15T02:44:45.625Z,3
2022-12-15T02:48:45.873Z,3
2022-12-15T02:50:45.997Z,4
2022-12-15T02:52:46.069Z,4
2022-12-15T02:54:46.192Z,4
2022-12-15T02:58:46.343Z,4
2022-12-15T03:00:46.644Z,5
2022-12-15T03:02:46.632Z,5
2022-12-15T03:04:46.638Z,5
2022-12-15T03:06:46.755Z,5
2022-12-15T03:08:46.859Z,5
2022-12-15T03:10:47.033Z,4
2022-12-15T03:12:47.086Z,5
2022-12-15T03:14:47.220Z,5
2022-12-15T03:16:47.374Z,4
2022-12-15T03:18:47.442Z,4
2022-12-15T03:22:47.672Z,4
2022-12-15T03:24:47.773Z,4
2022-12-15T03:26:47.881Z,4
2022-12-15T03:28:48.013Z,4
2022-12-15T03:30:50.429Z,3
2022-12-15T03:32:48.226Z,3
2022-12-15T03:34:48.328Z,3
2022-12-15T03:36:48.503Z,3
2022-12-15T03:38:48.563Z,3
2022-12-15T03:40:48.675Z,3
2022-12-15T03:42:48.781Z,4
2022-12-15T03:46:49.019Z,3
2022-12-15T03:50:49.219Z,3
2022-12-15T03:52:49.332Z,3
2022-12-15T03:54:49.516Z,3
2022-12-15T03:56:49.589Z,3
2022-12-15T03:58:49.667Z,3
2022-12-15T04:00:49.815Z,3
2022-12-15T04:02:50.464Z,4
2022-12-15T04:04:50.003Z,6
2022-12-15T04:06:50.101Z,6
2022-12-15T04:08:50.239Z,5
2022-12-15T04:12:50.446Z,5
2022-12-15T04:14:50.568Z,4
2022-12-15T04:16:50.781Z,4
2022-12-15T04:18:50.777Z,4
2022-12-15T04:20:50.874Z,4
2022-12-15T04:22:50.998Z,5
2022-12-15T04:24:51.088Z,7
2022-12-15T04:26:51.187Z,6
2022-12-15T04:30:51.572Z,7
2022-12-15T04:32:51.525Z,7
2022-12-15T04:34:51.582Z,8
2022-12-15T04:36:51.699Z,7
2022-12-15T04:38:51.801Z,8
2022-12-15T04:40:51.945Z,7
2022-12-15T04:42:52.032Z,7
2022-12-15T04:44:52.155Z,6
2022-12-15T04:46:52.248Z,6
2022-12-15T04:48:52.362Z,6
2022-12-15T04:50:52.476Z,7
2022-12-15T04:52:52.581Z,9
2022-12-15T04:54:52.676Z,8
2022-12-15T04:56:52.806Z,8
2022-12-15T04:58:52.894Z,7
2022-12-15T05:00:53.027Z,6
2022-12-15T05:02:53.111Z,6
2022-12-15T05:04:53.224Z,6
2022-12-15T05:06:53.353Z,6
2022-12-15T05:08:53.464Z,6
2022-12-15T05:10:53.552Z,6
2022-12-15T05:12:53.630Z,6
2022-12-15T05:14:53.739Z,6
2022-12-15T05:16:53.904Z,7
2022-12-15T05:18:54.024Z,8
2022-12-15T05:20:54.072Z,8
2022-12-15T05:22:54.173Z,10
2022-12-15T05:24:54.261Z,9
2022-12-15T05:26:54.384Z,9
2022-12-15T05:28:54.485Z,13
2022-12-15T05:30:54.673Z,16
2022-12-15T05:32:54.707Z,16
2022-12-15T05:34:54.803Z,18
2022-12-15T05:36:54.944Z,21
2022-12-15T05:38:55.071Z,20
2022-12-15T05:40:55.164Z,18
2022-12-15T05:42:55.254Z,17
2022-12-15T05:44:55.384Z,16
2022-12-15T05:46:55.492Z,15
2022-12-15T05:48:55.582Z,14
2022-12-15T05:50:55.697Z,12
2022-12-15T05:52:55.763Z,13
2022-12-15T05:54:55.878Z,12
2022-12-15T05:56:55.984Z,12
2022-12-15T05:58:56.087Z,11
2022-12-15T06:00:56.217Z,11
2022-12-15T06:02:56.341Z,12
2022-12-15T06:04:56.547Z,13
2022-12-15T06:06:56.550Z,13
2022-12-15T06:08:56.655Z,13
2022-12-15T06:10:56.863Z,16
2022-12-15T06:12:56.873Z,45
2022-12-15T06:14:56.968Z,40
2022-12-15T06:16:57.216Z,37
2022-12-15T06:18:57.207Z,33
2022-12-15T06:20:57.314Z,28
2022-12-15T06:22:57.435Z,25
2022-12-15T06:24:57.539Z,24
2022-12-15T06:26:57.629Z,25
2022-12-15T06:28:57.758Z,27
2022-12-15T06:30:57.878Z,22
2022-12-15T06:32:57.959Z,20
2022-12-15T06:34:58.036Z,20
2022-12-15T06:36:58.165Z,18
2022-12-15T06:38:58.260Z,20
2022-12-15T06:40:58.362Z,16
2022-12-15T06:44:58.602Z,17
2022-12-15T06:46:58.782Z,16
2022-12-15T06:48:58.802Z,15
2022-12-15T06:50:58.902Z,19
2022-12-15T06:52:59.010Z,15
2022-12-15T06:54:59.122Z,16
2022-12-15T06:56:59.221Z,14
2022-12-15T06:58:59.349Z,15
2022-12-15T07:00:59.503Z,17
2022-12-15T07:02:59.732Z,18
2022-12-15T07:04:59.638Z,24
2022-12-15T07:06:59.750Z,35
2022-12-15T07:08:59.890Z,173
2022-12-15T07:10:59.988Z,174
2022-12-15T07:13:00.099Z,110
2022-12-15T07:15:00.187Z,111
2022-12-15T07:17:00.282Z,48
2022-12-15T07:19:00.355Z,55
2022-12-15T07:21:00.466Z,65
2022-12-15T07:23:00.584Z,77
2022-12-15T07:25:00.677Z,59
2022-12-15T07:27:00.751Z,44
2022-12-15T07:29:00.854Z,43
2022-12-15T07:31:00.976Z,36
2022-12-15T07:33:01.050Z,33
2022-12-15T07:35:01.136Z,28
2022-12-15T07:37:01.247Z,26
2022-12-15T07:39:01.331Z,25
2022-12-15T07:41:01.450Z,23
2022-12-15T07:43:01.558Z,26
2022-12-15T07:45:01.657Z,34
2022-12-15T07:47:01.770Z,28
2022-12-15T07:49:01.864Z,28
2022-12-15T07:51:09.635Z,29
2022-12-15T07:53:02.072Z,32
2022-12-15T07:55:02.151Z,31
2022-12-15T07:57:02.274Z,30
2022-12-15T07:59:02.339Z,30
2022-12-15T08:01:02.521Z,30
2022-12-15T08:03:02.791Z,30
2022-12-15T08:05:02.679Z,25
2022-12-15T08:07:02.758Z,23
2022-12-15T08:09:02.834Z,28
2022-12-15T08:11:02.946Z,28
2022-12-15T08:13:03.043Z,25
2022-12-15T08:15:03.127Z,27
2022-12-15T08:17:03.322Z,37
2022-12-15T08:19:03.342Z,30
2022-12-15T08:21:03.456Z,28
2022-12-15T08:23:03.567Z,31
2022-12-15T08:25:03.650Z,35
2022-12-15T08:27:03.740Z,33
2022-12-15T08:29:32.017Z,35
2022-12-15T08:31:03.934Z,32
2022-12-15T08:33:04.045Z,31
2022-12-15T08:35:04.202Z,30
2022-12-15T08:37:04.209Z,29
2022-12-15T08:39:04.282Z,26
2022-12-15T08:41:04.396Z,23
2022-12-15T08:43:04.520Z,20
2022-12-15T08:45:04.592Z,19
2022-12-15T08:49:04.812Z,16
2022-12-15T08:51:04.898Z,16
2022-12-15T08:53:28.794Z,15
2022-12-15T08:55:05.162Z,16
2022-12-15T08:57:05.177Z,25
2022-12-15T08:59:05.266Z,208
2022-12-15T09:01:05.382Z,211
2022-12-15T09:03:05.456Z,71
2022-12-15T09:05:05.554Z,41
2022-12-15T09:07:05.638Z,24
2022-12-15T09:09:05.802Z,67
2022-12-15T09:11:05.849Z,118
2022-12-15T09:13:05.945Z,167
2022-12-15T09:15:06.036Z,46
2022-12-15T09:17:06.211Z,26
2022-12-15T09:19:06.204Z,29
2022-12-15T09:21:06.293Z,50
2022-12-15T09:23:06.395Z,38
2022-12-15T09:25:06.486Z,32
2022-12-15T09:27:06.593Z,32
2022-12-15T09:29:06.710Z,33
2022-12-15T09:31:06.825Z,146
2022-12-15T09:33:06.836Z,187
2022-12-15T09:35:06.963Z,83
2022-12-15T09:37:07.027Z,53
2022-12-15T09:39:07.120Z,52
2022-12-15T09:41:07.216Z,48
2022-12-15T09:43:33.469Z,44
2022-12-15T09:45:07.371Z,35
2022-12-15T09:47:07.492Z,35
2022-12-15T09:49:07.586Z,23
2022-12-15T09:51:07.681Z,25
2022-12-15T09:53:29.496Z,27
2022-12-15T09:55:07.888Z,26
2022-12-15T09:57:07.950Z,25
2022-12-15T09:59:08.020Z,28
2022-12-15T10:01:08.115Z,22
2022-12-15T10:03:08.410Z,25
2022-12-15T10:05:08.292Z,34
2022-12-15T10:07:08.372Z,21
2022-12-15T10:09:08.471Z,19
2022-12-15T10:11:08.522Z,42
2022-12-15T10:13:08.634Z,23
2022-12-15T10:15:08.708Z,26
2022-12-15T10:17:08.804Z,25
2022-12-15T10:19:08.875Z,19
2022-12-15T10:21:08.981Z,19
2022-12-15T10:23:09.102Z,33
2022-12-15T10:25:10.737Z,98
2022-12-15T10:27:09.271Z,68
2022-12-15T10:29:09.326Z,44
2022-12-15T10:31:09.512Z,32
2022-12-15T10:33:09.514Z,29
2022-12-15T10:35:09.605Z,29
2022-12-15T10:37:09.657Z,31
2022-12-15T10:39:12.870Z,33
2022-12-15T10:41:09.965Z,36
2022-12-15T10:43:09.944Z,33
2022-12-15T10:45:10.040Z,35
2022-12-15T10:47:10.109Z,39
2022-12-15T10:49:10.182Z,36
2022-12-15T10:51:10.326Z,33
2022-12-15T10:53:10.347Z,34
2022-12-15T10:55:10.439Z,28
2022-12-15T10:57:10.480Z,26
2022-12-15T10:59:10.574Z,27
2022-12-15T11:01:10.703Z,32
2022-12-15T11:03:41.383Z,28
2022-12-15T11:05:40.911Z,28
2022-12-15T11:07:41.010Z,26
2022-12-15T11:09:41.158Z,25
2022-12-15T11:11:45.116Z,24
2022-12-15T11:13:41.870Z,25
2022-12-15T11:15:41.893Z,24
2022-12-15T11:17:41.575Z,25
2022-12-15T11:19:41.723Z,24
2022-12-15T11:21:41.826Z,25
2022-12-15T11:23:46.736Z,24
2022-12-15T11:25:42.052Z,24
2022-12-15T11:27:42.164Z,27
2022-12-15T11:29:42.265Z,23
2022-12-15T11:31:42.417Z,24
2022-12-15T11:33:42.500Z,27
2022-12-15T11:35:42.566Z,24
2022-12-15T11:37:42.679Z,23
2022-12-15T11:39:42.814Z,25
2022-12-15T11:41:42.860Z,21
2022-12-15T11:43:42.986Z,21
2022-12-15T11:45:43.088Z,24
2022-12-15T11:47:43.191Z,26
2022-12-15T11:49:43.327Z,26
2022-12-15T11:51:43.391Z,23
2022-12-15T11:53:43.499Z,24
2022-12-15T11:55:43.568Z,24
2022-12-15T11:57:43.697Z,23
2022-12-15T11:59:43.808Z,25
2022-12-15T12:01:51.652Z,25
2022-12-15T12:03:43.962Z,25
2022-12-15T12:05:44.080Z,23
2022-12-15T12:07:44.157Z,24
2022-12-15T12:09:44.253Z,27
2022-12-15T12:11:44.367Z,27
2022-12-15T12:13:44.463Z,47
2022-12-15T12:15:44.586Z,31
2022-12-15T12:17:44.694Z,35
2022-12-15T12:19:44.796Z,29
2022-12-15T12:21:44.918Z,27
2022-12-15T12:23:45.010Z,25
2022-12-15T12:25:45.107Z,27
2022-12-15T12:27:45.239Z,26
2022-12-15T12:29:45.317Z,24
2022-12-15T12:31:45.412Z,21
2022-12-15T12:33:45.510Z,19
2022-12-15T12:35:45.608Z,20
2022-12-15T12:37:45.747Z,26
2022-12-15T12:39:45.856Z,37
2022-12-15T12:41:46.916Z,34
2022-12-15T12:43:50.247Z,45
2022-12-15T12:45:46.157Z,52
2022-12-15T12:47:46.227Z,61
2022-12-15T12:49:46.329Z,40
2022-12-15T12:51:46.428Z,48
2022-12-15T12:53:46.574Z,42
2022-12-15T12:55:46.624Z,31
2022-12-15T12:57:46.753Z,28
2022-12-15T12:59:49.157Z,26
2022-12-15T13:01:47.062Z,26
2022-12-15T13:03:46.995Z,25
2022-12-15T13:05:47.118Z,24
2022-12-15T13:07:47.197Z,23
2022-12-15T13:09:47.763Z,24
2022-12-15T13:11:48.983Z,24
2022-12-15T13:13:51.158Z,26
2022-12-15T13:15:50.871Z,28
2022-12-15T13:17:47.677Z,28
2022-12-15T13:19:52.125Z,29
2022-12-15T13:21:48.927Z,33
2022-12-15T13:23:47.942Z,43
2022-12-15T13:25:51.850Z,43
2022-12-15T13:27:48.139Z,38
2022-12-15T13:29:48.246Z,35
2022-12-15T13:31:49.149Z,36
2022-12-15T13:33:48.771Z,36
2022-12-15T13:35:48.546Z,38
2022-12-15T13:37:49.096Z,35
2022-12-15T13:39:48.732Z,41
2022-12-15T13:43:48.940Z,45
2022-12-15T13:45:50.739Z,63
2022-12-15T13:47:49.127Z,76
2022-12-15T13:49:51.992Z,51
2022-12-15T13:51:51.565Z,52
2022-12-15T13:53:49.751Z,59
2022-12-15T13:55:49.547Z,59
2022-12-15T13:57:49.583Z,58
2022-12-15T13:59:49.664Z,54
2022-12-15T14:01:50.867Z,53
2022-12-15T14:03:49.870Z,52
2022-12-15T14:05:49.953Z,52
2022-12-15T14:07:54.599Z,50
2022-12-15T14:09:50.105Z,51
2022-12-15T14:11:53.711Z,61
2022-12-15T14:15:50.969Z,62
2022-12-15T14:17:50.489Z,62
2022-12-15T14:19:51.141Z,59
2022-12-15T14:21:50.683Z,62
2022-12-15T14:24:36.521Z,64
2022-12-15T14:25:50.855Z,64
2022-12-15T14:27:51.242Z,62
2022-12-15T14:29:52.341Z,66
2022-12-15T14:31:51.167Z,62
2022-12-15T14:33:51.195Z,62
2022-12-15T14:35:51.288Z,61
2022-12-15T14:37:51.394Z,59
2022-12-15T14:39:51.435Z,60
2022-12-15T14:41:51.543Z,63
2022-12-15T14:44:32.159Z,66
2022-12-15T14:45:51.698Z,62
2022-12-15T14:48:06.039Z,65
2022-12-15T14:49:51.834Z,68
2022-12-15T14:51:51.931Z,66
2022-12-15T14:53:53.247Z,70
2022-12-15T14:55:52.199Z,69
2022-12-15T14:57:52.361Z,71
2022-12-15T14:59:52.292Z,98
2022-12-15T15:01:58.247Z,95
2022-12-15T15:03:13.114Z,41
2022-12-15T15:03:52.420Z,94
2022-12-15T15:05:52.533Z,89
2022-12-15T15:07:52.567Z,109
2022-12-15T15:09:52.659Z,128
2022-12-15T15:11:52.747Z,110
2022-12-15T15:14:22.906Z,87
2022-12-15T15:16:23.328Z,84
2022-12-15T15:18:23.215Z,73
2022-12-15T15:20:23.244Z,76
2022-12-15T15:22:23.331Z,93
2022-12-15T15:24:23.444Z,121
2022-12-15T15:26:23.594Z,110
2022-12-15T15:28:23.671Z,106
2022-12-15T15:30:23.808Z,94
2022-12-15T15:32:23.894Z,74
2022-12-15T15:34:24.039Z,75
2022-12-15T15:36:24.131Z,70
2022-12-15T15:38:24.228Z,63
2022-12-15T15:40:24.328Z,69
2022-12-15T15:42:30.668Z,71
2022-12-15T15:44:24.567Z,82
2022-12-15T15:46:24.756Z,69
2022-12-15T15:48:24.773Z,57
2022-12-15T15:50:24.890Z,59
2022-12-15T15:52:24.989Z,56
2022-12-15T15:54:25.098Z,55
2022-12-15T15:56:25.211Z,52
2022-12-15T15:58:25.337Z,56
2022-12-15T16:00:25.437Z,58
2022-12-15T16:02:25.780Z,52
2022-12-15T16:04:25.672Z,60
2022-12-15T16:06:25.757Z,69
2022-12-15T16:08:25.862Z,46
2022-12-15T16:10:25.987Z,44
2022-12-15T16:12:26.109Z,46
2022-12-15T16:14:26.179Z,43
2022-12-15T16:16:26.445Z,44
2022-12-15T16:18:26.383Z,50
2022-12-15T16:20:26.489Z,53
2022-12-15T16:22:26.615Z,56
2022-12-15T16:24:26.720Z,65
2022-12-15T16:26:26.825Z,68
2022-12-15T16:28:26.927Z,62
2022-12-15T16:30:27.047Z,57
2022-12-15T16:32:27.136Z,56
2022-12-15T16:34:27.228Z,64
2022-12-15T16:36:27.364Z,65
2022-12-15T16:38:27.503Z,65
2022-12-15T16:40:27.587Z,52
2022-12-15T16:42:27.779Z,45
2022-12-15T16:44:27.800Z,49
2022-12-15T16:46:27.964Z,50
2022-12-15T16:48:28.003Z,54
2022-12-15T16:50:28.114Z,66
2022-12-15T16:52:28.229Z,82
2022-12-15T16:54:28.307Z,122
2022-12-15T16:56:28.447Z,71
2022-12-15T16:58:28.898Z,60
2022-12-15T17:00:28.641Z,106
2022-12-15T17:02:29.149Z,56
2022-12-15T17:04:28.885Z,111
2022-12-15T17:06:28.996Z,54
2022-12-15T17:08:29.266Z,50
2022-12-15T17:10:29.175Z,59
2022-12-15T17:12:29.275Z,68
2022-12-15T17:14:29.394Z,62
2022-12-15T17:16:29.623Z,59
2022-12-15T17:18:29.882Z,47
2022-12-15T17:20:30.710Z,50
2022-12-15T17:22:29.817Z,50
2022-12-15T17:24:29.918Z,57
2022-12-15T17:26:30.395Z,60
2022-12-15T17:28:30.108Z,55
2022-12-15T17:30:30.181Z,54
2022-12-15T17:32:30.271Z,57
2022-12-15T17:34:30.548Z,50
2022-12-15T17:36:30.472Z,51
2022-12-15T17:38:30.546Z,57
2022-12-15T17:40:30.664Z,63
2022-12-15T17:42:30.790Z,50
2022-12-15T17:44:35.696Z,42
2022-12-15T17:46:31.023Z,40
2022-12-15T17:48:31.072Z,62
2022-12-15T17:50:31.187Z,46
2022-12-15T17:52:31.304Z,51
2022-12-15T17:54:31.393Z,47
2022-12-15T17:56:31.523Z,42
2022-12-15T17:58:31.611Z,41
2022-12-15T18:00:31.704Z,42
2022-12-15T18:02:32.110Z,52
2022-12-15T18:04:31.925Z,58
2022-12-15T18:06:32.033Z,68
2022-12-15T18:08:32.129Z,76
2022-12-15T18:10:32.267Z,67
2022-12-15T18:12:32.313Z,46
2022-12-15T18:14:32.415Z,49
2022-12-15T18:16:32.637Z,46
2022-12-15T18:18:32.709Z,47
2022-12-15T18:20:32.723Z,51
2022-12-15T18:22:32.810Z,53
2022-12-15T18:24:32.907Z,41
2022-12-15T18:26:33.040Z,39
2022-12-15T18:28:33.096Z,39
2022-12-15T18:30:33.203Z,41
2022-12-15T18:32:33.328Z,46
2022-12-15T18:34:33.413Z,40
2022-12-15T18:36:33.525Z,36
2022-12-15T18:38:33.595Z,35
2022-12-15T18:40:33.724Z,29
2022-12-15T18:42:33.821Z,26
2022-12-15T18:44:33.886Z,27
2022-12-15T18:46:34.023Z,28
2022-12-15T18:48:34.103Z,25
2022-12-15T18:50:34.194Z,24
2022-12-15T18:52:34.807Z,24
2022-12-15T18:54:34.395Z,28
2022-12-15T18:56:34.489Z,48
2022-12-15T18:58:34.577Z,45
2022-12-15T19:00:34.700Z,42
2022-12-15T19:02:34.903Z,48
2022-12-15T19:04:34.849Z,52
2022-12-15T19:06:35.062Z,54
2022-12-15T19:08:35.053Z,45
2022-12-15T19:10:35.153Z,45
2022-12-15T19:12:35.279Z,46
2022-12-15T19:14:35.407Z,50
2022-12-15T19:16:35.462Z,47
2022-12-15T19:18:35.549Z,37
2022-12-15T19:20:35.633Z,36
2022-12-15T19:22:35.819Z,33
2022-12-15T19:24:35.839Z,35
2022-12-15T19:26:35.907Z,32
2022-12-15T19:28:36.013Z,31
2022-12-15T19:30:41.976Z,31
2022-12-15T19:32:36.196Z,29
2022-12-15T19:34:36.260Z,30
2022-12-15T19:36:37.001Z,40
2022-12-15T19:38:36.558Z,41
2022-12-15T19:40:36.531Z,37
2022-12-15T19:42:36.631Z,36
2022-12-15T19:44:36.730Z,43
2022-12-15T19:46:36.840Z,48
2022-12-15T19:48:36.926Z,44
2022-12-15T19:50:37.141Z,43
2022-12-15T19:52:37.131Z,42
2022-12-15T19:54:37.233Z,49
2022-12-15T19:56:37.331Z,53
2022-12-15T19:58:37.407Z,47
2022-12-15T20:00:37.521Z,40
2022-12-15T20:02:37.649Z,37
2022-12-15T20:04:37.650Z,38
2022-12-15T20:06:37.728Z,45
2022-12-15T20:08:37.851Z,56
2022-12-15T20:10:37.952Z,52
2022-12-15T20:12:38.044Z,39
2022-12-15T20:14:38.088Z,38
2022-12-15T20:16:38.251Z,34
2022-12-15T20:18:38.280Z,38
2022-12-15T20:20:38.393Z,53
2022-12-15T20:22:38.490Z,51
2022-12-15T20:24:38.581Z,76
2022-12-15T20:26:38.656Z,87
2022-12-15T20:28:38.740Z,93
2022-12-15T20:30:38.852Z,77
2022-12-15T20:32:38.908Z,61
2022-12-15T20:34:39.072Z,60
2022-12-15T20:36:39.104Z,60
2022-12-15T20:38:39.214Z,51
2022-12-15T20:40:39.283Z,50
2022-12-15T20:42:39.349Z,54
2022-12-15T20:44:39.471Z,55
2022-12-15T20:46:39.603Z,58
2022-12-15T20:48:39.647Z,66
2022-12-15T20:50:39.732Z,63
2022-12-15T20:52:39.830Z,64
2022-12-15T20:54:39.944Z,64
2022-12-15T20:56:40.012Z,75
2022-12-15T20:58:40.091Z,89
2022-12-15T21:00:40.191Z,85
2022-12-15T21:02:40.442Z,91
2022-12-15T21:04:40.378Z,90
2022-12-15T21:06:42.866Z,94
2022-12-15T21:08:40.568Z,105
2022-12-15T21:10:40.632Z,102
2022-12-15T21:12:40.744Z,97
2022-12-15T21:14:40.798Z,98
2022-12-15T21:16:40.953Z,110
2022-12-15T21:19:17.949Z,107
2022-12-15T21:23:11.232Z,101
2022-12-15T21:25:11.355Z,102
2022-12-15T21:27:11.458Z,101
2022-12-15T21:29:11.563Z,87
2022-12-15T21:31:11.731Z,75
2022-12-15T21:33:11.776Z,64
2022-12-15T21:35:11.896Z,52
2022-12-15T21:37:12.079Z,47
2022-12-15T21:39:12.216Z,38
2022-12-15T21:41:12.248Z,40
2022-12-15T21:43:12.371Z,39
2022-12-15T21:45:12.433Z,39
2022-12-15T21:47:12.551Z,41
2022-12-15T21:49:12.693Z,44
2022-12-15T21:51:12.769Z,51
2022-12-15T21:53:12.892Z,55
2022-12-15T21:55:13.036Z,58
2022-12-15T21:57:13.133Z,56
2022-12-15T21:59:13.225Z,53
2022-12-15T22:01:13.401Z,51
2022-12-15T22:03:13.502Z,46
2022-12-15T22:05:13.550Z,50
2022-12-15T22:07:13.687Z,49
2022-12-15T22:09:13.806Z,47
2022-12-15T22:11:13.897Z,46
2022-12-15T22:13:14.003Z,38
2022-12-15T22:15:14.144Z,39
2022-12-15T22:17:14.223Z,27
2022-12-15T22:19:14.334Z,28
2022-12-15T22:21:14.428Z,27
2022-12-15T22:23:14.540Z,29
2022-12-15T22:25:14.642Z,32
2022-12-15T22:27:14.751Z,30
2022-12-15T22:29:14.856Z,26
2022-12-15T22:31:14.985Z,24
2022-12-15T22:33:19.142Z,20
2022-12-15T22:35:15.179Z,16
2022-12-15T22:37:15.280Z,17
2022-12-15T22:39:15.461Z,17
2022-12-15T22:41:15.514Z,17
2022-12-15T22:43:15.591Z,18
2022-12-15T22:45:15.693Z,18
2022-12-15T22:47:15.799Z,19
2022-12-15T22:49:15.909Z,20
2022-12-15T22:51:16.105Z,21
2022-12-15T22:55:16.209Z,22
2022-12-15T22:57:16.324Z,17
2022-12-15T22:59:16.459Z,21
2022-12-15T23:01:16.523Z,20
2022-12-15T23:03:16.619Z,20
2022-12-15T23:05:16.722Z,19
2022-12-15T23:07:16.853Z,19
2022-12-15T23:09:16.969Z,21
2022-12-15T23:11:17.064Z,21
2022-12-15T23:13:17.185Z,20
2022-12-15T23:15:19.991Z,21
2022-12-15T23:17:17.396Z,19
2022-12-15T23:19:17.518Z,26
2022-12-15T23:21:39.842Z,22
2022-12-15T23:25:17.763Z,17
2022-12-15T23:27:18.048Z,21
2022-12-15T23:31:18.156Z,19
2022-12-15T23:33:18.256Z,23
2022-12-15T23:35:18.251Z,20
2022-12-15T23:37:18.336Z,19
2022-12-15T23:39:18.468Z,20
2022-12-15T23:41:18.542Z,19
2022-12-15T23:43:18.663Z,20
2022-12-15T23:45:18.916Z,21
2022-12-15T23:47:18.854Z,22
2022-12-15T23:49:18.971Z,23
2022-12-15T23:51:19.125Z,24
2022-12-15T23:53:19.212Z,24
2022-12-15T23:55:19.297Z,26
2022-12-15T23:57:19.398Z,27
2022-12-15T23:59:19.504Z,28
